Time;durP1;ratioP1;P1;durP2;ratioP2;P2;SDS_P1;SDS_P2;PMS_P1;PMS_P2;Temp;Humidity;BMP_temperature;BMP_pressure;BME280_temperature;BME280_humidity;BME280_pressure;Samples;Min_cycle;Max_cycle;Signal;HPM_P1;HPM_P2
2023/04/12 00:00:20;;;;;;;6.40;1.85;;;7.50;99.90;;;;;;5073729;28;20510;-61
2023/04/12 00:02:53;;;;;;;7.78;2.17;;;7.50;99.90;;;;;;5088613;28;20051;-61
2023/04/12 00:05:21;;;;;;;5.15;2.25;;;7.50;99.90;;;;;;5073425;28;20059;-61
2023/04/12 00:07:51;;;;;;;7.30;2.30;;;7.50;99.90;;;;;;5091473;28;20101;-61
2023/04/12 00:10:20;;;;;;;5.18;2.15;;;7.60;99.90;;;;;;5074541;28;20054;-61
2023/04/12 00:12:48;;;;;;;6.32;2.13;;;7.60;99.90;;;;;;5095253;28;20102;-61
2023/04/12 00:15:15;;;;;;;10.00;2.20;;;7.60;99.90;;;;;;5076438;28;20044;-61
2023/04/12 00:17:42;;;;;;;5.18;1.80;;;7.60;99.90;;;;;;5095318;28;20472;-60
2023/04/12 00:20:11;;;;;;;5.68;2.45;;;7.70;99.90;;;;;;5077034;28;20086;-61
2023/04/12 00:22:38;;;;;;;7.97;2.05;;;7.70;99.90;;;;;;5094236;28;20047;-61
2023/04/12 00:25:06;;;;;;;13.57;2.90;;;7.70;99.90;;;;;;5076632;28;20047;-62
2023/04/12 00:27:34;;;;;;;9.48;2.47;;;7.70;99.90;;;;;;5094905;28;20557;-61
2023/04/12 00:30:01;;;;;;;6.57;2.25;;;7.70;99.90;;;;;;5074352;28;20058;-61
2023/04/12 00:32:28;;;;;;;4.90;1.90;;;7.80;99.90;;;;;;5094590;28;20048;-61
2023/04/12 00:34:55;;;;;;;11.25;2.45;;;7.80;99.90;;;;;;5094613;28;20052;-61
2023/04/12 00:37:22;;;;;;;8.90;2.08;;;7.80;99.90;;;;;;5076081;28;20101;-62
2023/04/12 00:39:49;;;;;;;8.40;2.22;;;7.90;99.90;;;;;;5076191;28;20052;-61
2023/04/12 00:42:16;;;;;;;9.50;2.50;;;7.90;99.90;;;;;;5094494;28;20047;-61
2023/04/12 00:44:44;;;;;;;5.70;2.47;;;7.90;99.90;;;;;;5093919;28;20449;-61
2023/04/12 00:47:11;;;;;;;9.70;3.00;;;7.90;99.90;;;;;;5074417;28;20048;-61
2023/04/12 00:49:38;;;;;;;8.05;2.17;;;7.90;99.90;;;;;;5094340;28;20088;-62
2023/04/12 00:52:08;;;;;;;7.22;2.05;;;7.90;99.90;;;;;;5093652;28;20051;-61
2023/04/12 00:54:36;;;;;;;7.28;3.10;;;7.90;99.90;;;;;;5076635;28;20496;-61
2023/04/12 00:57:03;;;;;;;4.93;2.20;;;7.90;99.90;;;;;;5094365;28;20449;-61
2023/04/12 00:59:30;;;;;;;8.52;3.30;;;7.90;99.90;;;;;;5091994;28;20113;-61
2023/04/12 01:02:00;;;;;;;11.07;3.17;;;7.90;99.90;;;;;;5075655;28;20120;-61
2023/04/12 01:04:28;;;;;;;6.28;2.47;;;8.00;99.90;;;;;;5075648;28;20413;-61
2023/04/12 01:07:08;;;;;;;12.75;3.00;;;8.00;99.90;;;;;;5091881;28;20047;-62
2023/04/12 01:09:46;;;;;;;7.15;2.05;;;8.00;99.90;;;;;;5075180;28;20464;-61
2023/04/12 01:12:21;;;;;;;7.07;2.08;;;8.00;99.90;;;;;;5074362;28;20496;-61
2023/04/12 01:14:55;;;;;;;6.85;2.45;;;8.00;99.90;;;;;;5075766;28;20062;-61
2023/04/12 01:17:29;;;;;;;7.40;2.63;;;8.00;99.90;;;;;;5093837;28;20048;-62
2023/04/12 01:19:59;;;;;;;9.55;2.70;;;8.00;99.90;;;;;;5093427;28;20044;-61
2023/04/12 01:22:49;;;;;;;7.20;2.50;;;8.10;99.90;;;;;;5093653;28;20086;-61
2023/04/12 01:25:33;;;;;;;7.78;2.55;;;8.10;99.90;;;;;;5061636;28;20044;-60
2023/04/12 01:28:03;;;;;;;7.25;2.75;;;8.10;99.90;;;;;;5093126;28;20349;-62
2023/04/12 01:30:31;;;;;;;10.25;2.80;;;8.20;99.90;;;;;;5093704;28;20047;-62
2023/04/12 01:33:02;;;;;;;7.95;2.40;;;8.20;99.90;;;;;;5090773;28;20040;-62
2023/04/12 01:35:31;;;;;;;8.48;2.58;;;8.20;99.90;;;;;;5093406;28;20439;-61
2023/04/12 01:37:59;;;;;;;5.38;2.20;;;8.20;99.90;;;;;;5093785;28;20037;-61
2023/04/12 01:40:27;;;;;;;12.65;2.53;;;8.20;99.90;;;;;;5091107;28;20101;-61
2023/04/12 01:43:06;;;;;;;9.68;2.08;;;8.20;99.90;;;;;;5093304;28;20051;-61
2023/04/12 01:45:32;;;;;;;8.57;2.70;;;8.30;99.90;;;;;;5073509;28;20454;-61
2023/04/12 01:48:00;;;;;;;10.85;3.28;;;8.30;99.90;;;;;;5074444;28;20126;-60
2023/04/12 01:50:35;;;;;;;8.35;2.42;;;8.30;99.90;;;;;;5093208;28;20123;-61
2023/04/12 01:53:08;;;;;;;12.52;2.92;;;8.30;99.90;;;;;;5073812;28;20093;-60
2023/04/12 01:55:37;;;;;;;9.20;2.88;;;8.30;99.90;;;;;;5091065;28;20051;-61
2023/04/12 01:58:07;;;;;;;9.05;3.10;;;8.30;99.90;;;;;;5075014;28;20044;-62
2023/04/12 02:00:36;;;;;;;6.43;2.13;;;8.20;99.90;;;;;;5074251;28;20048;-61
2023/04/12 02:03:04;;;;;;;5.57;2.45;;;8.30;99.90;;;;;;5074707;28;20445;-61
2023/04/12 02:05:32;;;;;;;9.05;3.13;;;8.30;99.90;;;;;;5090865;28;20699;-60
2023/04/12 02:07:59;;;;;;;8.00;2.75;;;8.30;99.90;;;;;;5092261;28;20044;-62
2023/04/12 02:10:30;;;;;;;5.38;2.15;;;8.20;99.90;;;;;;5075082;28;20105;-61
2023/04/12 02:13:00;;;;;;;10.95;2.40;;;8.20;99.90;;;;;;5072593;28;20052;-61
2023/04/12 02:15:28;;;;;;;9.95;3.67;;;8.20;99.90;;;;;;5092078;28;20400;-61
2023/04/12 02:17:57;;;;;;;11.85;2.92;;;8.30;99.90;;;;;;5092664;28;20389;-61
2023/04/12 02:20:24;;;;;;;7.55;2.40;;;8.10;99.90;;;;;;5091125;28;20044;-62
2023/04/12 02:22:51;;;;;;;9.57;2.25;;;8.10;99.90;;;;;;5074082;28;20097;-60
2023/04/12 02:25:17;;;;;;;9.98;3.20;;;8.10;99.90;;;;;;5074811;28;20082;-61
2023/04/12 02:27:45;;;;;;;4.53;2.13;;;8.10;99.90;;;;;;5072173;28;20043;-61
2023/04/12 02:30:12;;;;;;;7.22;2.63;;;8.10;99.90;;;;;;5092178;28;20439;-62
2023/04/12 02:32:44;;;;;;;13.15;3.25;;;8.10;99.90;;;;;;5091941;28;20457;-60
2023/04/12 02:35:12;;;;;;;7.60;2.38;;;8.10;99.90;;;;;;5092696;28;20465;-61
2023/04/12 02:37:39;;;;;;;5.35;2.42;;;8.10;99.90;;;;;;5091764;28;20040;-61
2023/04/12 02:40:09;;;;;;;6.18;2.97;;;8.10;99.90;;;;;;5074570;28;20052;-63
2023/04/12 02:42:36;;;;;;;8.27;2.27;;;8.10;99.90;;;;;;5090601;28;20040;-62
2023/04/12 02:45:03;;;;;;;6.45;2.08;;;8.10;99.90;;;;;;5073793;28;20403;-61
2023/04/12 02:47:30;;;;;;;3.90;1.90;;;8.00;99.90;;;;;;5074268;28;20125;-61
2023/04/12 02:49:59;;;;;;;4.95;2.22;;;8.00;99.90;;;;;;5091578;28;20048;-61
2023/04/12 02:52:27;;;;;;;4.63;2.08;;;8.00;99.90;;;;;;5073862;28;20056;-62
2023/04/12 02:54:54;;;;;;;9.57;2.55;;;8.00;99.90;;;;;;5092254;28;20055;-62
2023/04/12 02:57:22;;;;;;;6.45;2.00;;;8.00;99.90;;;;;;5091675;28;20044;-62
2023/04/12 02:59:51;;;;;;;7.40;2.67;;;7.90;99.90;;;;;;5092363;28;20052;-62
2023/04/12 03:02:19;;;;;;;7.95;2.83;;;8.00;99.90;;;;;;5089923;28;20437;-62
2023/04/12 03:04:49;;;;;;;4.63;2.45;;;8.00;99.90;;;;;;5091438;28;20044;-61
2023/04/12 03:07:18;;;;;;;4.45;2.08;;;8.00;99.90;;;;;;5074141;28;20083;-61
2023/04/12 03:09:46;;;;;;;4.60;1.90;;;8.00;99.90;;;;;;5090147;28;20454;-61
2023/04/12 03:12:14;;;;;;;6.63;2.30;;;8.00;99.90;;;;;;5091377;28;20728;-62
2023/04/12 03:14:41;;;;;;;8.02;2.00;;;8.00;99.90;;;;;;5092182;28;20094;-61
2023/04/12 03:17:08;;;;;;;5.10;1.67;;;8.00;99.90;;;;;;5074015;28;20476;-61
2023/04/12 03:19:35;;;;;;;6.43;2.03;;;8.00;99.90;;;;;;5091371;28;20058;-62
2023/04/12 03:22:03;;;;;;;4.22;2.15;;;8.00;99.90;;;;;;5091812;28;20051;-62
2023/04/12 03:24:33;;;;;;;6.30;1.52;;;8.00;99.90;;;;;;5074039;28;20439;-61
2023/04/12 03:27:01;;;;;;;6.57;2.13;;;8.00;99.90;;;;;;5091369;28;20044;-61
2023/04/12 03:29:28;;;;;;;4.60;1.80;;;8.00;99.90;;;;;;5073951;28;20128;-61
2023/04/12 03:31:56;;;;;;;7.38;2.10;;;8.00;99.90;;;;;;5091650;28;20123;-60
2023/04/12 03:34:26;;;;;;;8.25;2.42;;;8.00;99.90;;;;;;5073616;28;20122;-61
2023/04/12 03:36:54;;;;;;;4.77;1.93;;;8.10;99.90;;;;;;5074023;28;20463;-62
2023/04/12 03:39:21;;;;;;;7.70;1.90;;;8.00;99.90;;;;;;5091411;28;20048;-62
2023/04/12 03:41:51;;;;;;;6.05;1.80;;;8.10;99.90;;;;;;5091692;28;20044;-60
2023/04/12 03:44:20;;;;;;;4.15;1.90;;;8.00;99.90;;;;;;5073480;28;20189;-62
2023/04/12 03:46:47;;;;;;;7.25;2.45;;;8.00;99.90;;;;;;5076864;28;20060;-62
2023/04/12 03:49:15;;;;;;;7.97;1.80;;;7.90;99.90;;;;;;5095694;28;20051;-61
2023/04/12 03:51:42;;;;;;;9.55;2.33;;;8.00;99.90;;;;;;5085862;28;20059;-61
2023/04/12 03:54:10;;;;;;;3.45;1.98;;;7.90;99.90;;;;;;5072912;28;20105;-61
2023/04/12 03:56:37;;;;;;;5.35;1.83;;;7.90;99.90;;;;;;5092500;28;20048;-62
2023/04/12 03:59:06;;;;;;;4.60;1.77;;;7.90;99.90;;;;;;5092150;28;20085;-61
2023/04/12 04:01:33;;;;;;;3.75;1.48;;;7.80;99.90;;;;;;5091221;28;20465;-61
2023/04/12 04:04:00;;;;;;;9.73;2.22;;;7.90;99.90;;;;;;5089708;28;20059;-61
2023/04/12 04:06:28;;;;;;;6.25;2.20;;;7.80;99.90;;;;;;5073035;28;20057;-61
2023/04/12 04:08:55;;;;;;;8.85;2.05;;;7.80;99.90;;;;;;5089850;28;20048;-61
2023/04/12 04:11:23;;;;;;;4.38;1.90;;;7.80;99.90;;;;;;5094058;28;20111;-61
2023/04/12 04:13:50;;;;;;;4.45;1.90;;;7.80;99.90;;;;;;5088377;28;20079;-61
2023/04/12 04:16:18;;;;;;;6.05;1.67;;;7.90;99.90;;;;;;5071837;28;20055;-61
2023/04/12 04:18:45;;;;;;;4.35;1.73;;;7.80;99.90;;;;;;5089238;28;20044;-62
2023/04/12 04:21:13;;;;;;;4.75;2.05;;;7.70;99.90;;;;;;5073832;28;20105;-61
2023/04/12 04:23:43;;;;;;;3.58;1.70;;;7.80;99.90;;;;;;5072749;28;20051;-62
2023/04/12 04:26:11;;;;;;;6.05;2.50;;;7.70;99.90;;;;;;5076118;28;20063;-63
2023/04/12 04:28:38;;;;;;;5.95;1.90;;;7.70;99.90;;;;;;5091796;28;20070;-61
2023/04/12 04:31:05;;;;;;;5.40;1.98;;;7.60;99.90;;;;;;5093593;28;20425;-62
2023/04/12 04:33:34;;;;;;;7.47;2.30;;;7.60;99.90;;;;;;5090625;28;20511;-62
2023/04/12 04:36:03;;;;;;;4.93;1.83;;;7.60;99.90;;;;;;5072757;28;20436;-61
2023/04/12 04:38:31;;;;;;;11.52;2.40;;;7.60;99.90;;;;;;5071059;28;20094;-62
2023/04/12 04:40:58;;;;;;;6.38;2.53;;;7.50;99.90;;;;;;5071175;28;20537;-62
2023/04/12 04:43:29;;;;;;;9.70;3.75;;;7.60;99.90;;;;;;5089873;28;20055;-62
2023/04/12 04:45:56;;;;;;;8.90;2.72;;;7.50;99.90;;;;;;5089170;28;20105;-61
2023/04/12 04:48:23;;;;;;;7.25;2.70;;;7.50;99.90;;;;;;5070910;28;20048;-61
2023/04/12 04:50:51;;;;;;;10.35;2.85;;;7.50;99.90;;;;;;5071863;28;20048;-62
2023/04/12 04:53:19;;;;;;;7.63;2.78;;;7.40;99.90;;;;;;5090907;28;20098;-61
2023/04/12 04:55:47;;;;;;;9.05;3.03;;;7.50;99.90;;;;;;5091369;28;20060;-62
2023/04/12 04:58:15;;;;;;;9.43;2.83;;;7.40;99.90;;;;;;5088751;28;20127;-61
2023/04/12 05:00:43;;;;;;;6.18;2.47;;;7.40;99.90;;;;;;5072560;28;20067;-62
2023/04/12 05:03:10;;;;;;;9.90;3.35;;;7.40;99.90;;;;;;5091465;28;20051;-62
2023/04/12 05:05:38;;;;;;;6.05;2.60;;;7.30;99.90;;;;;;5087580;28;20056;-61
2023/04/12 05:08:06;;;;;;;6.97;2.75;;;7.30;99.90;;;;;;5092864;28;20399;-61
2023/04/12 05:10:33;;;;;;;10.77;3.38;;;7.30;99.90;;;;;;5068989;28;20109;-62
2023/04/12 05:13:00;;;;;;;8.15;3.03;;;7.30;99.90;;;;;;5071152;28;20048;-61
2023/04/12 05:15:27;;;;;;;5.30;2.72;;;7.30;99.90;;;;;;5088039;28;20055;-61
2023/04/12 05:17:54;;;;;;;7.60;2.85;;;7.20;99.90;;;;;;5074833;28;20105;-62
2023/04/12 05:20:21;;;;;;;13.02;3.55;;;7.20;99.90;;;;;;5071967;28;20097;-62
2023/04/12 05:22:47;;;;;;;4.85;2.72;;;7.20;99.90;;;;;;5088771;28;20048;-61
2023/04/12 05:25:16;;;;;;;10.68;3.38;;;7.20;99.90;;;;;;5072573;28;20056;-62
2023/04/12 05:27:43;;;;;;;8.00;3.13;;;7.20;99.90;;;;;;5089529;28;20553;-61
2023/04/12 05:30:11;;;;;;;6.45;2.70;;;7.20;99.90;;;;;;5070035;28;20459;-62
2023/04/12 05:32:38;;;;;;;7.05;3.15;;;7.20;99.90;;;;;;5091332;28;20044;-60
2023/04/12 05:35:05;;;;;;;10.48;4.32;;;7.20;99.90;;;;;;5091126;28;20566;-61
2023/04/12 05:37:32;;;;;;;5.28;3.15;;;7.10;99.90;;;;;;5092546;28;20131;-61
2023/04/12 05:39:59;;;;;;;9.05;3.13;;;7.10;99.90;;;;;;5074240;28;20048;-61
2023/04/12 05:42:28;;;;;;;10.52;3.20;;;7.10;99.90;;;;;;5093556;28;20097;-61
2023/04/12 05:44:55;;;;;;;4.95;3.35;;;7.10;99.90;;;;;;5093416;28;20410;-61
2023/04/12 05:47:22;;;;;;;10.68;3.55;;;7.10;99.90;;;;;;5092745;28;20129;-61
2023/04/12 05:49:49;;;;;;;6.60;3.35;;;7.10;99.90;;;;;;5093137;28;20048;-60
2023/04/12 05:52:16;;;;;;;12.00;3.38;;;7.10;99.90;;;;;;5074663;28;20055;-62
2023/04/12 05:54:43;;;;;;;9.13;3.53;;;7.10;99.90;;;;;;5074491;28;20048;-61
2023/04/12 05:57:11;;;;;;;12.00;3.65;;;7.10;99.90;;;;;;5075278;28;20415;-61
2023/04/12 05:59:40;;;;;;;8.65;3.25;;;7.10;99.90;;;;;;5075334;28;20044;-61
2023/04/12 06:02:08;;;;;;;11.55;3.70;;;7.10;99.90;;;;;;5092327;28;20511;-62
2023/04/12 06:04:36;;;;;;;8.57;2.90;;;7.10;99.90;;;;;;5074766;28;20079;-61
2023/04/12 06:07:04;;;;;;;7.25;3.22;;;7.10;99.90;;;;;;5073983;28;20830;-62
2023/04/12 06:09:31;;;;;;;10.57;3.55;;;7.10;99.90;;;;;;5092663;28;20044;-61
2023/04/12 06:11:58;;;;;;;8.55;3.38;;;7.10;99.90;;;;;;5092827;28;20052;-61
2023/04/12 06:14:25;;;;;;;5.80;3.05;;;7.10;99.90;;;;;;5092231;28;20048;-63
2023/04/12 06:16:53;;;;;;;8.68;3.22;;;7.10;99.90;;;;;;5092689;28;20404;-62
2023/04/12 06:19:20;;;;;;;7.50;2.78;;;7.10;99.90;;;;;;5092981;28;20036;-61
2023/04/12 06:21:47;;;;;;;5.18;2.67;;;7.00;99.90;;;;;;5092111;28;20483;-61
2023/04/12 06:24:14;;;;;;;8.95;3.30;;;7.10;99.90;;;;;;5074760;28;20488;-61
2023/04/12 06:26:42;;;;;;;9.23;3.88;;;7.00;99.90;;;;;;5090594;28;20453;-61
2023/04/12 06:29:08;;;;;;;8.40;2.88;;;7.10;99.90;;;;;;5073717;28;20051;-63
2023/04/12 06:31:35;;;;;;;5.15;2.80;;;7.10;99.90;;;;;;5092363;28;20048;-61
2023/04/12 06:34:04;;;;;;;9.57;3.22;;;7.00;99.90;;;;;;5074307;28;20083;-61
2023/04/12 06:36:30;;;;;;;7.03;3.63;;;7.10;99.90;;;;;;5092003;28;20056;-62
2023/04/12 06:38:57;;;;;;;7.93;3.15;;;7.00;99.90;;;;;;5092540;28;20039;-62
2023/04/12 06:41:24;;;;;;;6.28;2.80;;;7.00;99.90;;;;;;5092257;28;20090;-62
2023/04/12 06:43:51;;;;;;;11.50;3.58;;;7.10;99.90;;;;;;5091900;28;20047;-62
2023/04/12 06:46:26;;;;;;;7.22;3.00;;;7.00;99.90;;;;;;5074146;28;20069;-62
2023/04/12 06:48:53;;;;;;;6.30;3.00;;;7.10;99.90;;;;;;5092569;28;20410;-62
2023/04/12 06:51:21;;;;;;;6.15;3.25;;;7.10;99.90;;;;;;5073591;28;20044;-62
2023/04/12 06:53:48;;;;;;;9.43;3.10;;;7.10;99.90;;;;;;5090344;28;20492;-62
2023/04/12 06:56:15;;;;;;;8.25;3.30;;;7.10;99.90;;;;;;5091444;28;20044;-62
2023/04/12 06:58:41;;;;;;;12.07;3.35;;;7.10;99.90;;;;;;5074110;28;20431;-63
2023/04/12 07:01:10;;;;;;;8.07;2.90;;;7.10;99.90;;;;;;5074114;28;20048;-62
2023/04/12 07:03:37;;;;;;;6.13;2.97;;;7.10;99.90;;;;;;5091048;28;20054;-62
2023/04/12 07:06:05;;;;;;;4.80;2.70;;;7.10;99.90;;;;;;5092156;28;20040;-62
2023/04/12 07:08:35;;;;;;;7.32;3.35;;;7.10;99.90;;;;;;5073907;28;20557;-62
2023/04/12 07:11:02;;;;;;;;;;;7.10;99.90;;;;;;5091768;28;20105;-63
2023/04/12 07:13:29;;;;;;;9.85;3.20;;;7.10;99.90;;;;;;5092086;28;19973;-63
2023/04/12 07:15:56;;;;;;;7.18;3.08;;;7.00;99.90;;;;;;5092132;28;20381;-62
2023/04/12 07:18:24;;;;;;;9.80;3.38;;;7.10;99.90;;;;;;5073887;28;20044;-63
2023/04/12 07:20:55;;;;;;;6.22;3.28;;;7.10;99.90;;;;;;5096159;28;20462;-62
2023/04/12 07:23:21;;;;;;;;;;;7.10;99.90;;;;;;5096383;28;20052;-62
2023/04/12 07:25:49;;;;;;;6.90;3.13;;;7.10;99.90;;;;;;5095501;28;19974;-63
2023/04/12 07:28:16;;;;;;;6.47;3.63;;;7.10;99.90;;;;;;5078162;28;20412;-63
2023/04/12 07:30:43;;;;;;;8.55;3.17;;;7.10;99.90;;;;;;5078087;28;20074;-62
2023/04/12 07:33:10;;;;;;;6.35;2.80;;;7.10;99.90;;;;;;5077246;28;20052;-63
2023/04/12 07:35:37;;;;;;;7.55;2.95;;;7.10;99.90;;;;;;5095916;28;20117;-63
2023/04/12 07:38:04;;;;;;;6.07;3.58;;;7.10;99.90;;;;;;5096070;28;20044;-63
2023/04/12 07:40:31;;;;;;;11.73;3.05;;;7.20;99.90;;;;;;5077230;28;20048;-62
2023/04/12 07:42:59;;;;;;;4.43;2.67;;;7.20;99.90;;;;;;5095751;28;20048;-61
2023/04/12 07:45:26;;;;;;;4.47;2.60;;;7.20;99.90;;;;;;5075005;28;20059;-62
2023/04/12 07:47:53;;;;;;;6.97;2.97;;;7.20;99.90;;;;;;5096143;28;20044;-63
2023/04/12 07:50:20;;;;;;;5.20;2.75;;;7.20;99.90;;;;;;5077751;28;20055;-62
2023/04/12 07:52:47;;;;;;;5.20;3.20;;;7.20;99.90;;;;;;5094829;28;20506;-62
2023/04/12 07:55:13;;;;;;;7.15;3.35;;;7.20;99.90;;;;;;5095441;28;20545;-61
2023/04/12 07:57:40;;;;;;;8.73;3.30;;;7.30;99.90;;;;;;5095795;28;20052;-61
2023/04/12 08:00:10;;;;;;;5.70;3.50;;;7.30;99.90;;;;;;5094591;28;20503;-62
2023/04/12 08:02:37;;;;;;;9.85;3.08;;;7.30;99.90;;;;;;5095274;28;20056;-63
2023/04/12 08:05:05;;;;;;;4.05;3.05;;;7.30;99.90;;;;;;5093271;28;20044;-62
2023/04/12 08:07:33;;;;;;;4.10;3.05;;;7.40;99.90;;;;;;5076536;28;20099;-63
2023/04/12 08:10:00;;;;;;;5.22;3.17;;;7.40;99.90;;;;;;5077029;28;20549;-62
2023/04/12 08:12:27;;;;;;;5.10;2.90;;;7.40;99.90;;;;;;5076833;28;20059;-62
2023/04/12 08:14:54;;;;;;;5.78;3.70;;;7.40;99.90;;;;;;5094649;28;20047;-62
2023/04/12 08:17:22;;;;;;;6.53;4.18;;;7.50;99.90;;;;;;5093089;28;20047;-62
2023/04/12 08:19:49;;;;;;;6.43;4.15;;;7.50;99.90;;;;;;5077111;28;20105;-62
2023/04/12 08:22:16;;;;;;;5.30;3.47;;;7.60;99.90;;;;;;5094245;28;20097;-62
2023/04/12 08:24:43;;;;;;;4.50;3.20;;;7.60;99.90;;;;;;5076862;28;20487;-62
2023/04/12 08:27:12;;;;;;;5.15;3.00;;;7.60;99.90;;;;;;5077019;28;20399;-62
2023/04/12 08:29:39;;;;;;;4.70;3.70;;;7.60;99.90;;;;;;5076228;28;20048;-61
2023/04/12 08:32:08;;;;;;;4.57;3.35;;;7.70;99.90;;;;;;5093840;28;20126;-61
2023/04/12 08:34:37;;;;;;;4.18;2.58;;;7.70;99.90;;;;;;5076293;28;20396;-61
2023/04/12 08:37:04;;;;;;;5.35;3.20;;;7.70;99.90;;;;;;5075195;28;20048;-62
2023/04/12 08:39:31;;;;;;;4.80;3.40;;;7.80;99.90;;;;;;5076607;28;20063;-62
2023/04/12 08:42:00;;;;;;;5.20;3.35;;;7.80;99.90;;;;;;5094046;28;20161;-61
2023/04/12 08:44:35;;;;;;;5.35;3.22;;;7.80;99.90;;;;;;5092738;28;20051;-61
2023/04/12 08:47:02;;;;;;;5.30;3.13;;;7.80;99.90;;;;;;5076446;28;20097;-61
2023/04/12 08:49:31;;;;;;;4.35;3.10;;;7.80;99.90;;;;;;5093949;28;20052;-62
2023/04/12 08:52:04;;;;;;;7.35;3.92;;;7.80;99.90;;;;;;5076448;28;20079;-61
2023/04/12 08:54:31;;;;;;;6.13;4.28;;;7.90;99.90;;;;;;5093015;28;20069;-62
2023/04/12 08:57:01;;;;;;;4.20;3.38;;;7.90;99.90;;;;;;5093758;28;20040;-62
2023/04/12 08:59:28;;;;;;;5.03;4.10;;;7.90;99.90;;;;;;5094266;28;20036;-63
2023/04/12 09:01:56;;;;;;;5.50;4.10;;;7.90;99.90;;;;;;5093911;28;20044;-62
2023/04/12 09:04:25;;;;;;;5.57;3.90;;;7.90;99.90;;;;;;5093777;28;20036;-60
2023/04/12 09:06:52;;;;;;;5.72;4.13;;;8.00;99.90;;;;;;5076217;28;20056;-63
2023/04/12 09:09:39;;;;;;;6.38;4.70;;;8.00;99.90;;;;;;5094286;28;20112;-62
2023/04/12 09:12:07;;;;;;;5.00;4.20;;;8.00;99.90;;;;;;5093447;28;20454;-62
2023/04/12 09:14:34;;;;;;;6.15;4.60;;;8.10;99.90;;;;;;5076135;28;20117;-62
2023/04/12 09:17:01;;;;;;;8.15;4.70;;;8.20;99.90;;;;;;5091385;28;20085;-62
2023/04/12 09:19:32;;;;;;;7.07;5.05;;;8.30;99.90;;;;;;5094036;28;20070;-61
2023/04/12 09:21:59;;;;;;;4.90;4.32;;;8.30;99.90;;;;;;5093694;28;20086;-62
2023/04/12 09:24:28;;;;;;;6.03;4.72;;;8.40;99.90;;;;;;5093235;28;20058;-60
2023/04/12 09:27:02;;;;;;;7.13;4.32;;;8.40;99.90;;;;;;5093850;28;20117;-61
2023/04/12 09:29:30;;;;;;;6.18;4.68;;;8.40;99.90;;;;;;5093845;28;20076;-61
2023/04/12 09:32:00;;;;;;;7.05;4.85;;;8.40;99.90;;;;;;5092904;28;20565;-61
2023/04/12 09:34:27;;;;;;;6.00;4.63;;;8.50;99.90;;;;;;5091954;28;20098;-62
2023/04/12 09:36:54;;;;;;;5.45;4.50;;;8.50;99.90;;;;;;5093467;28;20101;-62
2023/04/12 09:39:30;;;;;;;7.88;5.15;;;8.60;99.90;;;;;;5074982;28;20119;-62
2023/04/12 09:42:07;;;;;;;5.18;3.88;;;8.80;99.90;;;;;;5091591;28;20054;-62
2023/04/12 09:44:34;;;;;;;5.78;4.50;;;8.70;99.90;;;;;;5074655;28;20051;-61
2023/04/12 09:47:03;;;;;;;7.78;4.90;;;8.90;99.90;;;;;;5092854;28;20494;-61
2023/04/12 09:49:38;;;;;;;7.50;5.03;;;9.20;99.90;;;;;;5093138;28;20040;-62
2023/04/12 09:52:07;;;;;;;5.65;4.38;;;9.50;99.90;;;;;;5092648;28;20039;-63
2023/04/12 09:54:39;;;;;;;5.78;4.05;;;9.80;99.90;;;;;;5075392;28;20101;-61
2023/04/12 09:57:08;;;;;;;5.20;3.80;;;10.10;99.90;;;;;;5091846;28;20127;-61
2023/04/12 09:59:38;;;;;;;4.45;3.65;;;10.60;99.90;;;;;;5092631;28;20044;-62
2023/04/12 10:02:08;;;;;;;5.35;3.60;;;10.80;99.90;;;;;;5092616;28;20109;-62
2023/04/12 10:04:37;;;;;;;6.18;4.05;;;11.10;99.90;;;;;;5093467;28;20044;-62
2023/04/12 10:07:05;;;;;;;6.63;3.65;;;11.60;99.90;;;;;;5072481;28;20466;-63
2023/04/12 10:09:33;;;;;;;4.28;3.85;;;12.30;99.90;;;;;;5074999;28;20076;-60
2023/04/12 10:12:02;;;;;;;4.68;3.42;;;12.50;99.90;;;;;;5074866;28;20052;-62
2023/04/12 10:14:31;;;;;;;3.95;2.95;;;12.50;99.90;;;;;;5074290;28;20078;-62
2023/04/12 10:16:59;;;;;;;5.85;3.13;;;12.40;99.90;;;;;;5092873;28;20059;-62
2023/04/12 10:19:28;;;;;;;6.40;3.40;;;12.20;99.90;;;;;;5093104;28;20040;-62
2023/04/12 10:21:55;;;;;;;11.02;4.18;;;12.30;99.90;;;;;;5089778;28;20054;-63
2023/04/12 10:24:23;;;;;;;5.82;2.90;;;12.70;99.90;;;;;;5092788;28;20097;-62
2023/04/12 10:26:50;;;;;;;4.82;3.05;;;13.30;99.90;;;;;;5074744;28;20052;-62
2023/04/12 10:29:28;;;;;;;5.45;2.90;;;14.20;99.90;;;;;;5092245;28;20051;-62
2023/04/12 10:31:58;;;;;;;3.65;2.85;;;14.80;99.90;;;;;;5074468;28;20472;-63
2023/04/12 10:34:28;;;;;;;9.32;3.10;;;14.80;99.90;;;;;;5092134;28;20098;-62
2023/04/12 10:36:56;;;;;;;6.47;2.70;;;15.40;99.90;;;;;;5092620;28;20078;-62
2023/04/12 10:39:38;;;;;;;7.05;2.30;;;15.40;99.90;;;;;;5072476;28;20380;-62
2023/04/12 10:42:23;;;;;;;7.15;3.08;;;15.90;99.90;;;;;;5074204;28;20643;-62
2023/04/12 10:44:51;;;;;;;4.40;2.08;;;16.10;99.90;;;;;;5072551;28;20083;-62
2023/04/12 10:47:52;;;;;;;4.75;2.63;;;16.10;99.90;;;;;;5092368;28;20127;-62
2023/04/12 10:50:24;;;;;;;4.72;2.47;;;15.90;99.90;;;;;;5090430;28;20048;-62
2023/04/12 10:53:23;;;;;;;8.05;2.35;;;15.70;99.90;;;;;;5090234;28;20403;-62
2023/04/12 10:55:51;;;;;;;8.93;3.08;;;15.60;99.90;;;;;;5075183;28;20074;-62
2023/04/12 10:58:58;;;;;;;5.40;2.63;;;15.90;99.90;;;;;;5090263;28;20509;-61
2023/04/12 11:01:26;;;;;;;13.70;3.00;;;16.60;99.90;;;;;;5042535;28;20438;-62
2023/04/12 11:04:12;;;;;;;10.30;2.92;;;16.50;99.90;;;;;;5091440;28;20132;-62
2023/04/12 11:06:48;;;;;;;7.97;2.50;;;16.00;99.90;;;;;;5092285;28;20052;-62
2023/04/12 11:09:24;;;;;;;6.35;2.40;;;15.90;99.90;;;;;;5091592;28;20119;-62
2023/04/12 11:11:51;;;;;;;7.30;3.13;;;16.10;99.90;;;;;;5091730;28;20504;-62
2023/04/12 11:14:23;;;;;;;7.22;2.72;;;16.20;99.90;;;;;;5092271;28;20393;-61
2023/04/12 11:17:22;;;;;;;7.13;2.90;;;16.20;99.90;;;;;;5089705;28;20047;-62
2023/04/12 11:19:52;;;;;;;7.72;2.72;;;16.60;99.90;;;;;;5092181;28;20097;-61
2023/04/12 11:22:21;;;;;;;10.25;3.03;;;16.00;99.90;;;;;;5090161;28;20113;-62
2023/04/12 11:24:50;;;;;;;9.43;2.38;;;15.60;99.90;;;;;;5091506;28;20520;-62
2023/04/12 11:27:18;;;;;;;9.90;2.88;;;15.60;99.90;;;;;;5073821;28;20055;-62
2023/04/12 11:29:47;;;;;;;8.10;2.65;;;15.80;99.90;;;;;;5073907;28;20044;-63
2023/04/12 11:32:15;;;;;;;8.02;2.60;;;15.70;99.90;;;;;;5091323;28;20044;-63
2023/04/12 11:34:43;;;;;;;6.82;2.47;;;15.90;99.90;;;;;;5092020;28;20127;-62
2023/04/12 11:37:10;;;;;;;11.43;3.15;;;16.10;99.90;;;;;;5074285;28;20056;-62
2023/04/12 11:39:40;;;;;;;10.32;2.67;;;16.50;99.90;;;;;;5073439;28;20075;-63
2023/04/12 11:42:08;;;;;;;10.50;3.20;;;16.50;99.90;;;;;;5091634;28;20139;-62
2023/04/12 11:44:36;;;;;;;7.85;2.97;;;16.30;99.90;;;;;;5073198;28;20086;-62
2023/04/12 11:47:04;;;;;;;13.05;2.90;;;15.90;99.90;;;;;;5091963;28;20124;-62
2023/04/12 11:49:30;;;;;;;9.73;2.92;;;15.30;99.90;;;;;;5091659;28;20040;-61
2023/04/12 11:52:04;;;;;;;6.53;2.85;;;15.40;99.90;;;;;;5091069;28;20048;-62
2023/04/12 11:54:33;;;;;;;12.07;2.90;;;15.20;99.90;;;;;;5091699;28;20056;-61
2023/04/12 11:57:01;;;;;;;13.27;3.08;;;15.20;99.90;;;;;;5091929;28;20093;-62
2023/04/12 11:59:35;;;;;;;9.90;3.10;;;15.00;99.90;;;;;;5090938;28;20059;-62
2023/04/12 12:02:03;;;;;;;14.88;3.53;;;15.00;99.90;;;;;;5091254;28;20055;-63
2023/04/12 12:04:31;;;;;;;10.55;2.72;;;14.70;99.90;;;;;;5091627;28;20075;-62
2023/04/12 12:06:58;;;;;;;13.73;2.58;;;14.50;99.90;;;;;;5075314;28;20052;-62
2023/04/12 12:09:26;;;;;;;8.60;3.38;;;14.30;99.90;;;;;;5095310;28;20412;-62
2023/04/12 12:11:54;;;;;;;9.10;2.78;;;14.20;99.90;;;;;;5095299;28;20127;-62
2023/04/12 12:14:23;;;;;;;7.97;2.50;;;14.20;99.90;;;;;;5094631;28;20039;-62
2023/04/12 12:16:56;;;;;;;8.98;2.33;;;14.10;99.90;;;;;;5095196;28;20048;-62
2023/04/12 12:19:31;;;;;;;7.32;2.65;;;14.10;99.90;;;;;;5076941;28;20514;-62
2023/04/12 12:22:10;;;;;;;5.22;2.58;;;14.10;99.90;;;;;;5094911;28;20044;-63
2023/04/12 12:24:37;;;;;;;7.70;2.47;;;14.10;99.90;;;;;;5095093;28;20127;-64
2023/04/12 12:27:04;;;;;;;8.15;2.20;;;14.20;99.90;;;;;;5076669;28;20060;-63
2023/04/12 12:29:37;;;;;;;12.68;2.28;;;14.40;99.90;;;;;;5074935;28;20047;-63
2023/04/12 12:32:10;;;;;;;10.00;2.65;;;14.40;99.90;;;;;;5074623;28;20139;-62
2023/04/12 12:34:37;;;;;;;9.35;2.38;;;14.30;99.90;;;;;;5073915;28;20052;-64
2023/04/12 12:37:09;;;;;;;12.38;2.78;;;14.20;99.90;;;;;;5094917;28;20066;-62
2023/04/12 12:39:36;;;;;;;8.57;2.80;;;13.90;99.90;;;;;;5094897;28;20048;-62
2023/04/12 12:42:04;;;;;;;9.77;2.75;;;14.00;99.90;;;;;;5093883;28;20056;-62
2023/04/12 12:44:32;;;;;;;10.90;3.72;;;14.20;99.90;;;;;;5094436;28;20446;-62
2023/04/12 12:47:01;;;;;;;14.63;3.65;;;14.30;99.90;;;;;;5094693;28;20111;-62
2023/04/12 12:49:29;;;;;;;13.20;3.22;;;14.10;99.90;;;;;;5093996;28;20052;-63
2023/04/12 12:51:56;;;;;;;9.05;3.10;;;14.20;99.90;;;;;;5076512;28;20047;-62
2023/04/12 12:54:23;;;;;;;15.18;4.55;;;14.30;99.90;;;;;;5092437;28;20461;-63
2023/04/12 12:56:50;;;;;;;12.25;3.25;;;14.30;99.90;;;;;;5094220;28;20105;-62
2023/04/12 12:59:17;;;;;;;8.80;3.00;;;14.10;99.90;;;;;;5094548;28;20044;-62
2023/04/12 13:01:44;;;;;;;14.70;3.15;;;14.10;99.90;;;;;;5075540;28;20055;-62